sensor_id;sensor_type;location;lat;lon;timestamp;P1;durP1;ratioP1;P2;durP2;ratioP2
64915;SDS011;51427;-27.442;153.014;2023-07-28T00:01:24;2.95;;;0.50;;
64915;SDS011;51427;-27.442;153.014;2023-07-28T00:03:51;1.95;;;0.40;;
64915;SDS011;51427;-27.442;153.014;2023-07-28T00:06:18;3.03;;;0.32;;
64915;SDS011;51427;-27.442;153.014;2023-07-28T00:08:46;0.30;;;0.20;;
64915;SDS011;51427;-27.442;153.014;2023-07-28T00:11:13;0.70;;;0.30;;
64915;SDS011;51427;-27.442;153.014;2023-07-28T00:13:42;0.88;;;0.30;;
64915;SDS011;51427;-27.442;153.014;2023-07-28T00:16:09;1.00;;;0.40;;
64915;SDS011;51427;-27.442;153.014;2023-07-28T00:18:37;0.40;;;0.30;;
64915;SDS011;51427;-27.442;153.014;2023-07-28T00:21:04;1.23;;;0.68;;
64915;SDS011;51427;-27.442;153.014;2023-07-28T00:23:34;2.03;;;0.60;;
64915;SDS011;51427;-27.442;153.014;2023-07-28T00:26:01;1.30;;;0.98;;
64915;SDS011;51427;-27.442;153.014;2023-07-28T00:28:28;1.73;;;1.00;;
64915;SDS011;51427;-27.442;153.014;2023-07-28T00:30:55;1.83;;;0.73;;
64915;SDS011;51427;-27.442;153.014;2023-07-28T00:33:23;1.30;;;0.40;;
64915;SDS011;51427;-27.442;153.014;2023-07-28T00:35:50;0.90;;;0.65;;
64915;SDS011;51427;-27.442;153.014;2023-07-28T00:38:17;0.40;;;0.40;;
64915;SDS011;51427;-27.442;153.014;2023-07-28T00:40:44;1.38;;;0.50;;
64915;SDS011;51427;-27.442;153.014;2023-07-28T00:43:11;1.30;;;0.40;;
64915;SDS011;51427;-27.442;153.014;2023-07-28T00:45:39;1.30;;;0.60;;
64915;SDS011;51427;-27.442;153.014;2023-07-28T00:48:08;1.23;;;0.45;;
64915;SDS011;51427;-27.442;153.014;2023-07-28T00:50:43;2.13;;;0.40;;
64915;SDS011;51427;-27.442;153.014;2023-07-28T00:53:11;0.50;;;0.30;;
64915;SDS011;51427;-27.442;153.014;2023-07-28T00:55:39;1.35;;;0.40;;
64915;SDS011;51427;-27.442;153.014;2023-07-28T00:58:07;1.48;;;0.88;;
64915;SDS011;51427;-27.442;153.014;2023-07-28T01:00:35;3.72;;;0.52;;
64915;SDS011;51427;-27.442;153.014;2023-07-28T01:03:02;2.15;;;0.70;;
64915;SDS011;51427;-27.442;153.014;2023-07-28T01:08:39;0.98;;;0.22;;
64915;SDS011;51427;-27.442;153.014;2023-07-28T01:11:14;0.82;;;0.20;;
64915;SDS011;51427;-27.442;153.014;2023-07-28T01:13:41;1.20;;;0.30;;
64915;SDS011;51427;-27.442;153.014;2023-07-28T01:16:08;0.77;;;0.25;;
64915;SDS011;51427;-27.442;153.014;2023-07-28T01:18:36;0.57;;;0.30;;
64915;SDS011;51427;-27.442;153.014;2023-07-28T01:21:04;1.30;;;0.80;;
64915;SDS011;51427;-27.442;153.014;2023-07-28T01:26:11;2.28;;;0.93;;
64915;SDS011;51427;-27.442;153.014;2023-07-28T01:28:41;1.65;;;0.40;;
64915;SDS011;51427;-27.442;153.014;2023-07-28T01:31:09;0.57;;;0.38;;
64915;SDS011;51427;-27.442;153.014;2023-07-28T01:33:37;1.35;;;0.47;;
64915;SDS011;51427;-27.442;153.014;2023-07-28T01:36:04;1.98;;;0.75;;
64915;SDS011;51427;-27.442;153.014;2023-07-28T01:38:31;2.38;;;0.80;;
64915;SDS011;51427;-27.442;153.014;2023-07-28T01:40:58;1.90;;;0.73;;
64915;SDS011;51427;-27.442;153.014;2023-07-28T01:43:26;5.68;;;3.85;;
64915;SDS011;51427;-27.442;153.014;2023-07-28T01:45:53;1.23;;;0.32;;
64915;SDS011;51427;-27.442;153.014;2023-07-28T01:48:20;2.58;;;1.00;;
64915;SDS011;51427;-27.442;153.014;2023-07-28T01:50:47;0.82;;;0.40;;
64915;SDS011;51427;-27.442;153.014;2023-07-28T01:53:14;8.70;;;3.95;;
64915;SDS011;51427;-27.442;153.014;2023-07-28T01:55:42;0.90;;;0.43;;
64915;SDS011;51427;-27.442;153.014;2023-07-28T01:58:09;0.98;;;0.40;;
64915;SDS011;51427;-27.442;153.014;2023-07-28T02:00:36;2.55;;;1.75;;
64915;SDS011;51427;-27.442;153.014;2023-07-28T02:03:03;2.42;;;1.20;;
64915;SDS011;51427;-27.442;153.014;2023-07-28T02:05:31;1.35;;;0.30;;
64915;SDS011;51427;-27.442;153.014;2023-07-28T02:07:58;1.05;;;0.63;;
64915;SDS011;51427;-27.442;153.014;2023-07-28T02:10:28;1.33;;;0.90;;
64915;SDS011;51427;-27.442;153.014;2023-07-28T02:12:56;2.33;;;0.50;;
64915;SDS011;51427;-27.442;153.014;2023-07-28T02:15:23;1.15;;;0.50;;
64915;SDS011;51427;-27.442;153.014;2023-07-28T02:17:50;1.05;;;0.60;;
64915;SDS011;51427;-27.442;153.014;2023-07-28T02:20:18;4.63;;;1.92;;
64915;SDS011;51427;-27.442;153.014;2023-07-28T02:22:45;23.20;;;15.45;;
64915;SDS011;51427;-27.442;153.014;2023-07-28T02:25:12;13.45;;;9.15;;
64915;SDS011;51427;-27.442;153.014;2023-07-28T02:27:40;1.75;;;1.23;;
64915;SDS011;51427;-27.442;153.014;2023-07-28T02:30:07;1.13;;;0.50;;
64915;SDS011;51427;-27.442;153.014;2023-07-28T02:32:36;1.42;;;1.05;;
64915;SDS011;51427;-27.442;153.014;2023-07-28T02:35:03;4.25;;;1.23;;
64915;SDS011;51427;-27.442;153.014;2023-07-28T02:37:31;0.57;;;0.57;;
64915;SDS011;51427;-27.442;153.014;2023-07-28T02:39:58;3.65;;;1.40;;
64915;SDS011;51427;-27.442;153.014;2023-07-28T02:45:54;1.52;;;1.08;;
64915;SDS011;51427;-27.442;153.014;2023-07-28T02:48:22;1.98;;;1.00;;
64915;SDS011;51427;-27.442;153.014;2023-07-28T02:50:50;0.65;;;0.52;;
64915;SDS011;51427;-27.442;153.014;2023-07-28T02:53:18;1.65;;;1.20;;
64915;SDS011;51427;-27.442;153.014;2023-07-28T02:55:46;2.95;;;1.92;;
64915;SDS011;51427;-27.442;153.014;2023-07-28T02:58:13;2.03;;;1.77;;
64915;SDS011;51427;-27.442;153.014;2023-07-28T03:00:41;1.17;;;0.52;;
64915;SDS011;51427;-27.442;153.014;2023-07-28T03:03:10;4.40;;;0.68;;
64915;SDS011;51427;-27.442;153.014;2023-07-28T03:05:38;0.60;;;0.40;;
64915;SDS011;51427;-27.442;153.014;2023-07-28T03:08:06;2.75;;;0.50;;
64915;SDS011;51427;-27.442;153.014;2023-07-28T03:10:33;0.90;;;0.68;;
64915;SDS011;51427;-27.442;153.014;2023-07-28T03:13:00;2.50;;;0.93;;
64915;SDS011;51427;-27.442;153.014;2023-07-28T03:15:31;2.55;;;1.30;;
64915;SDS011;51427;-27.442;153.014;2023-07-28T03:17:59;1.67;;;1.40;;
64915;SDS011;51427;-27.442;153.014;2023-07-28T03:20:26;0.57;;;0.47;;
64915;SDS011;51427;-27.442;153.014;2023-07-28T03:22:53;1.27;;;0.60;;
64915;SDS011;51427;-27.442;153.014;2023-07-28T03:25:20;2.70;;;0.60;;
64915;SDS011;51427;-27.442;153.014;2023-07-28T03:27:47;2.90;;;0.60;;
64915;SDS011;51427;-27.442;153.014;2023-07-28T03:30:15;2.33;;;0.65;;
64915;SDS011;51427;-27.442;153.014;2023-07-28T03:32:42;2.97;;;0.65;;
64915;SDS011;51427;-27.442;153.014;2023-07-28T03:35:09;1.42;;;0.90;;
64915;SDS011;51427;-27.442;153.014;2023-07-28T03:37:36;2.30;;;2.10;;
64915;SDS011;51427;-27.442;153.014;2023-07-28T03:40:04;2.97;;;0.50;;
64915;SDS011;51427;-27.442;153.014;2023-07-28T03:42:31;1.95;;;0.47;;
64915;SDS011;51427;-27.442;153.014;2023-07-28T03:44:59;2.25;;;0.40;;
64915;SDS011;51427;-27.442;153.014;2023-07-28T03:47:27;2.17;;;0.82;;
64915;SDS011;51427;-27.442;153.014;2023-07-28T03:49:54;1.88;;;0.43;;
64915;SDS011;51427;-27.442;153.014;2023-07-28T03:52:21;1.35;;;0.52;;
64915;SDS011;51427;-27.442;153.014;2023-07-28T03:54:48;1.15;;;0.40;;
64915;SDS011;51427;-27.442;153.014;2023-07-28T03:57:16;2.03;;;0.35;;
64915;SDS011;51427;-27.442;153.014;2023-07-28T03:59:43;2.25;;;0.30;;
64915;SDS011;51427;-27.442;153.014;2023-07-28T04:02:10;1.75;;;0.40;;
64915;SDS011;51427;-27.442;153.014;2023-07-28T04:04:37;1.08;;;0.40;;
64915;SDS011;51427;-27.442;153.014;2023-07-28T04:07:05;0.80;;;0.65;;
64915;SDS011;51427;-27.442;153.014;2023-07-28T04:09:32;2.10;;;0.57;;
64915;SDS011;51427;-27.442;153.014;2023-07-28T04:11:59;2.08;;;0.70;;
64915;SDS011;51427;-27.442;153.014;2023-07-28T04:14:26;0.52;;;0.50;;
64915;SDS011;51427;-27.442;153.014;2023-07-28T04:16:53;1.38;;;0.70;;
64915;SDS011;51427;-27.442;153.014;2023-07-28T04:19:21;1.58;;;0.50;;
64915;SDS011;51427;-27.442;153.014;2023-07-28T04:21:48;0.90;;;0.50;;
64915;SDS011;51427;-27.442;153.014;2023-07-28T04:24:15;1.05;;;0.52;;
64915;SDS011;51427;-27.442;153.014;2023-07-28T04:26:42;3.00;;;0.80;;
64915;SDS011;51427;-27.442;153.014;2023-07-28T04:29:14;0.45;;;0.30;;
64915;SDS011;51427;-27.442;153.014;2023-07-28T04:31:41;3.75;;;0.73;;
64915;SDS011;51427;-27.442;153.014;2023-07-28T04:34:08;1.95;;;0.57;;
64915;SDS011;51427;-27.442;153.014;2023-07-28T04:36:35;1.95;;;0.40;;
64915;SDS011;51427;-27.442;153.014;2023-07-28T04:39:03;1.50;;;0.57;;
64915;SDS011;51427;-27.442;153.014;2023-07-28T04:41:30;1.08;;;0.40;;
64915;SDS011;51427;-27.442;153.014;2023-07-28T04:43:57;0.95;;;0.40;;
64915;SDS011;51427;-27.442;153.014;2023-07-28T04:46:24;1.75;;;0.60;;
64915;SDS011;51427;-27.442;153.014;2023-07-28T04:48:53;2.35;;;0.40;;
64915;SDS011;51427;-27.442;153.014;2023-07-28T04:51:21;3.00;;;0.77;;
64915;SDS011;51427;-27.442;153.014;2023-07-28T04:53:48;0.90;;;0.38;;
64915;SDS011;51427;-27.442;153.014;2023-07-28T04:56:15;1.30;;;0.43;;
64915;SDS011;51427;-27.442;153.014;2023-07-28T04:58:43;2.08;;;0.52;;
64915;SDS011;51427;-27.442;153.014;2023-07-28T05:01:10;2.65;;;0.60;;
64915;SDS011;51427;-27.442;153.014;2023-07-28T05:03:38;2.58;;;0.47;;
64915;SDS011;51427;-27.442;153.014;2023-07-28T05:06:05;2.88;;;0.45;;
64915;SDS011;51427;-27.442;153.014;2023-07-28T05:08:33;1.02;;;0.30;;
64915;SDS011;51427;-27.442;153.014;2023-07-28T05:11:00;2.90;;;0.50;;
64915;SDS011;51427;-27.442;153.014;2023-07-28T05:13:27;0.98;;;0.55;;
64915;SDS011;51427;-27.442;153.014;2023-07-28T05:15:54;2.53;;;0.60;;
64915;SDS011;51427;-27.442;153.014;2023-07-28T05:18:21;2.38;;;0.60;;
64915;SDS011;51427;-27.442;153.014;2023-07-28T05:20:48;0.38;;;0.20;;
64915;SDS011;51427;-27.442;153.014;2023-07-28T05:23:16;3.00;;;0.40;;
64915;SDS011;51427;-27.442;153.014;2023-07-28T05:25:43;1.48;;;0.40;;
64915;SDS011;51427;-27.442;153.014;2023-07-28T05:28:10;3.22;;;0.40;;
64915;SDS011;51427;-27.442;153.014;2023-07-28T05:30:37;1.27;;;0.30;;
64915;SDS011;51427;-27.442;153.014;2023-07-28T05:33:04;0.73;;;0.30;;
64915;SDS011;51427;-27.442;153.014;2023-07-28T05:35:32;0.43;;;0.40;;
64915;SDS011;51427;-27.442;153.014;2023-07-28T05:37:59;0.57;;;0.30;;
64915;SDS011;51427;-27.442;153.014;2023-07-28T05:40:27;2.40;;;0.60;;
64915;SDS011;51427;-27.442;153.014;2023-07-28T05:42:54;1.38;;;0.32;;
64915;SDS011;51427;-27.442;153.014;2023-07-28T05:45:21;0.75;;;0.50;;
64915;SDS011;51427;-27.442;153.014;2023-07-28T05:47:48;1.60;;;0.80;;
64915;SDS011;51427;-27.442;153.014;2023-07-28T05:50:15;0.45;;;0.22;;
64915;SDS011;51427;-27.442;153.014;2023-07-28T05:52:42;0.30;;;0.15;;
64915;SDS011;51427;-27.442;153.014;2023-07-28T05:55:10;1.05;;;0.55;;
64915;SDS011;51427;-27.442;153.014;2023-07-28T05:57:37;1.17;;;0.28;;
64915;SDS011;51427;-27.442;153.014;2023-07-28T06:00:04;2.65;;;0.50;;
64915;SDS011;51427;-27.442;153.014;2023-07-28T06:02:36;1.75;;;0.38;;
64915;SDS011;51427;-27.442;153.014;2023-07-28T06:05:03;1.45;;;0.47;;
64915;SDS011;51427;-27.442;153.014;2023-07-28T06:07:30;3.35;;;0.30;;
64915;SDS011;51427;-27.442;153.014;2023-07-28T06:09:58;0.80;;;0.40;;
64915;SDS011;51427;-27.442;153.014;2023-07-28T06:12:25;0.45;;;0.30;;
64915;SDS011;51427;-27.442;153.014;2023-07-28T06:14:52;0.95;;;0.30;;
64915;SDS011;51427;-27.442;153.014;2023-07-28T06:17:19;1.25;;;0.40;;
64915;SDS011;51427;-27.442;153.014;2023-07-28T06:19:46;1.90;;;0.43;;
64915;SDS011;51427;-27.442;153.014;2023-07-28T06:22:13;0.30;;;0.30;;
64915;SDS011;51427;-27.442;153.014;2023-07-28T07:42:40;2.70;;;0.70;;
64915;SDS011;51427;-27.442;153.014;2023-07-28T07:46:59;5.25;;;1.00;;
64915;SDS011;51427;-27.442;153.014;2023-07-28T07:49:27;3.40;;;0.70;;
64915;SDS011;51427;-27.442;153.014;2023-07-28T07:51:54;3.08;;;0.50;;
64915;SDS011;51427;-27.442;153.014;2023-07-28T07:56:55;2.97;;;0.60;;
64915;SDS011;51427;-27.442;153.014;2023-07-28T07:59:23;3.00;;;0.70;;
64915;SDS011;51427;-27.442;153.014;2023-07-28T08:01:53;3.55;;;0.70;;
64915;SDS011;51427;-27.442;153.014;2023-07-28T08:04:20;3.15;;;0.93;;
64915;SDS011;51427;-27.442;153.014;2023-07-28T08:06:49;2.47;;;1.15;;
64915;SDS011;51427;-27.442;153.014;2023-07-28T08:09:16;4.78;;;1.40;;
64915;SDS011;51427;-27.442;153.014;2023-07-28T08:11:43;1.60;;;0.90;;
64915;SDS011;51427;-27.442;153.014;2023-07-28T08:14:11;2.28;;;0.80;;
64915;SDS011;51427;-27.442;153.014;2023-07-28T08:16:38;2.10;;;1.17;;
64915;SDS011;51427;-27.442;153.014;2023-07-28T08:19:05;4.25;;;1.38;;
64915;SDS011;51427;-27.442;153.014;2023-07-28T08:21:33;3.50;;;1.10;;
64915;SDS011;51427;-27.442;153.014;2023-07-28T08:24:02;3.63;;;2.22;;
64915;SDS011;51427;-27.442;153.014;2023-07-28T08:26:30;4.13;;;2.22;;
64915;SDS011;51427;-27.442;153.014;2023-07-28T08:28:57;3.30;;;2.00;;
64915;SDS011;51427;-27.442;153.014;2023-07-28T08:31:24;5.22;;;2.55;;
64915;SDS011;51427;-27.442;153.014;2023-07-28T08:33:52;3.85;;;2.60;;
64915;SDS011;51427;-27.442;153.014;2023-07-28T08:36:19;2.88;;;1.98;;
64915;SDS011;51427;-27.442;153.014;2023-07-28T08:38:46;4.53;;;1.95;;
64915;SDS011;51427;-27.442;153.014;2023-07-28T08:41:14;2.63;;;1.58;;
64915;SDS011;51427;-27.442;153.014;2023-07-28T08:43:41;2.15;;;1.38;;
64915;SDS011;51427;-27.442;153.014;2023-07-28T08:46:09;5.38;;;1.75;;
64915;SDS011;51427;-27.442;153.014;2023-07-28T08:48:36;2.95;;;1.50;;
64915;SDS011;51427;-27.442;153.014;2023-07-28T08:51:04;3.47;;;1.33;;
64915;SDS011;51427;-27.442;153.014;2023-07-28T08:53:31;3.13;;;1.45;;
64915;SDS011;51427;-27.442;153.014;2023-07-28T08:55:58;1.88;;;1.35;;
64915;SDS011;51427;-27.442;153.014;2023-07-28T08:58:26;4.70;;;1.67;;
64915;SDS011;51427;-27.442;153.014;2023-07-28T09:00:53;2.45;;;1.85;;
64915;SDS011;51427;-27.442;153.014;2023-07-28T09:03:20;4.70;;;2.20;;
64915;SDS011;51427;-27.442;153.014;2023-07-28T09:05:48;26.52;;;15.32;;
64915;SDS011;51427;-27.442;153.014;2023-07-28T09:08:15;19.20;;;13.13;;
64915;SDS011;51427;-27.442;153.014;2023-07-28T09:10:46;19.02;;;12.35;;
64915;SDS011;51427;-27.442;153.014;2023-07-28T09:13:15;14.10;;;9.50;;
64915;SDS011;51427;-27.442;153.014;2023-07-28T09:15:44;10.10;;;6.45;;
64915;SDS011;51427;-27.442;153.014;2023-07-28T09:18:13;11.55;;;6.72;;
64915;SDS011;51427;-27.442;153.014;2023-07-28T09:20:42;7.82;;;5.63;;
64915;SDS011;51427;-27.442;153.014;2023-07-28T09:23:13;7.97;;;5.13;;
64915;SDS011;51427;-27.442;153.014;2023-07-28T09:25:41;7.15;;;4.65;;
64915;SDS011;51427;-27.442;153.014;2023-07-28T09:28:08;5.80;;;4.10;;
64915;SDS011;51427;-27.442;153.014;2023-07-28T09:30:46;7.72;;;4.30;;
64915;SDS011;51427;-27.442;153.014;2023-07-28T09:33:36;5.68;;;3.15;;
64915;SDS011;51427;-27.442;153.014;2023-07-28T09:36:09;5.03;;;3.10;;
64915;SDS011;51427;-27.442;153.014;2023-07-28T09:38:40;5.90;;;2.90;;
64915;SDS011;51427;-27.442;153.014;2023-07-28T09:41:08;4.22;;;2.80;;
64915;SDS011;51427;-27.442;153.014;2023-07-28T09:43:37;4.68;;;2.80;;
64915;SDS011;51427;-27.442;153.014;2023-07-28T09:46:05;5.28;;;2.83;;
64915;SDS011;51427;-27.442;153.014;2023-07-28T09:48:34;4.63;;;2.65;;
64915;SDS011;51427;-27.442;153.014;2023-07-28T09:51:08;5.15;;;2.67;;
64915;SDS011;51427;-27.442;153.014;2023-07-28T09:53:53;5.90;;;2.67;;
64915;SDS011;51427;-27.442;153.014;2023-07-28T09:56:31;4.30;;;2.53;;
64915;SDS011;51427;-27.442;153.014;2023-07-28T09:59:01;5.30;;;2.47;;
64915;SDS011;51427;-27.442;153.014;2023-07-28T10:01:34;4.13;;;2.75;;
64915;SDS011;51427;-27.442;153.014;2023-07-28T10:04:01;6.72;;;3.17;;
64915;SDS011;51427;-27.442;153.014;2023-07-28T10:06:29;5.75;;;3.80;;
64915;SDS011;51427;-27.442;153.014;2023-07-28T10:08:59;4.72;;;3.58;;
64915;SDS011;51427;-27.442;153.014;2023-07-28T10:11:27;6.05;;;3.20;;
64915;SDS011;51427;-27.442;153.014;2023-07-28T10:13:55;3.65;;;3.10;;
64915;SDS011;51427;-27.442;153.014;2023-07-28T10:16:38;7.13;;;3.65;;
64915;SDS011;51427;-27.442;153.014;2023-07-28T10:19:06;3.78;;;3.20;;
64915;SDS011;51427;-27.442;153.014;2023-07-28T10:21:38;5.63;;;3.20;;
64915;SDS011;51427;-27.442;153.014;2023-07-28T10:24:09;4.35;;;3.50;;
64915;SDS011;51427;-27.442;153.014;2023-07-28T10:26:37;6.38;;;3.00;;
64915;SDS011;51427;-27.442;153.014;2023-07-28T10:29:15;5.93;;;3.10;;
64915;SDS011;51427;-27.442;153.014;2023-07-28T10:31:53;26.77;;;17.63;;
64915;SDS011;51427;-27.442;153.014;2023-07-28T10:34:24;29.70;;;21.30;;
64915;SDS011;51427;-27.442;153.014;2023-07-28T10:36:58;23.73;;;16.10;;
64915;SDS011;51427;-27.442;153.014;2023-07-28T10:39:25;24.60;;;16.33;;
64915;SDS011;51427;-27.442;153.014;2023-07-28T10:42:06;18.55;;;13.43;;
64915;SDS011;51427;-27.442;153.014;2023-07-28T10:44:34;14.85;;;10.23;;
64915;SDS011;51427;-27.442;153.014;2023-07-28T10:47:06;17.38;;;10.05;;
64915;SDS011;51427;-27.442;153.014;2023-07-28T10:49:35;11.85;;;7.50;;
64915;SDS011;51427;-27.442;153.014;2023-07-28T10:52:02;10.45;;;6.30;;
64915;SDS011;51427;-27.442;153.014;2023-07-28T10:54:31;8.35;;;5.13;;
64915;SDS011;51427;-27.442;153.014;2023-07-28T10:57:01;8.43;;;5.45;;
64915;SDS011;51427;-27.442;153.014;2023-07-28T10:59:29;7.57;;;5.10;;
64915;SDS011;51427;-27.442;153.014;2023-07-28T11:01:56;5.75;;;4.40;;
64915;SDS011;51427;-27.442;153.014;2023-07-28T11:04:24;6.60;;;4.43;;
64915;SDS011;51427;-27.442;153.014;2023-07-28T11:06:51;7.72;;;4.20;;
64915;SDS011;51427;-27.442;153.014;2023-07-28T11:09:21;5.95;;;4.18;;
64915;SDS011;51427;-27.442;153.014;2023-07-28T11:11:49;6.65;;;4.53;;
64915;SDS011;51427;-27.442;153.014;2023-07-28T11:14:17;6.80;;;3.75;;
64915;SDS011;51427;-27.442;153.014;2023-07-28T11:16:46;10.20;;;4.75;;
64915;SDS011;51427;-27.442;153.014;2023-07-28T11:19:13;6.75;;;4.13;;
64915;SDS011;51427;-27.442;153.014;2023-07-28T11:21:41;7.03;;;4.03;;
64915;SDS011;51427;-27.442;153.014;2023-07-28T11:24:10;12.95;;;7.50;;
64915;SDS011;51427;-27.442;153.014;2023-07-28T11:26:38;12.80;;;8.02;;
64915;SDS011;51427;-27.442;153.014;2023-07-28T11:29:06;13.50;;;6.32;;
64915;SDS011;51427;-27.442;153.014;2023-07-28T11:31:33;21.23;;;10.88;;
64915;SDS011;51427;-27.442;153.014;2023-07-28T11:34:01;15.25;;;8.90;;
64915;SDS011;51427;-27.442;153.014;2023-07-28T11:36:31;13.07;;;7.55;;
64915;SDS011;51427;-27.442;153.014;2023-07-28T11:38:59;43.83;;;22.55;;
64915;SDS011;51427;-27.442;153.014;2023-07-28T11:41:29;78.82;;;40.28;;
64915;SDS011;51427;-27.442;153.014;2023-07-28T11:43:58;36.38;;;18.17;;
64915;SDS011;51427;-27.442;153.014;2023-07-28T11:46:40;30.35;;;16.10;;
64915;SDS011;51427;-27.442;153.014;2023-07-28T11:49:15;32.58;;;15.85;;
64915;SDS011;51427;-27.442;153.014;2023-07-28T11:51:49;20.00;;;10.57;;
64915;SDS011;51427;-27.442;153.014;2023-07-28T11:54:21;18.80;;;10.05;;
64915;SDS011;51427;-27.442;153.014;2023-07-28T11:56:50;10.63;;;7.07;;
64915;SDS011;51427;-27.442;153.014;2023-07-28T11:59:21;10.88;;;5.68;;
64915;SDS011;51427;-27.442;153.014;2023-07-28T12:01:51;9.38;;;5.95;;
64915;SDS011;51427;-27.442;153.014;2023-07-28T12:07:00;34.83;;;16.35;;
64915;SDS011;51427;-27.442;153.014;2023-07-28T12:12:38;14.70;;;7.82;;
64915;SDS011;51427;-27.442;153.014;2023-07-28T12:20:38;11.85;;;5.78;;
64915;SDS011;51427;-27.442;153.014;2023-07-28T12:23:08;10.32;;;5.53;;
64915;SDS011;51427;-27.442;153.014;2023-07-28T12:25:36;19.73;;;8.27;;
64915;SDS011;51427;-27.442;153.014;2023-07-28T12:28:04;65.25;;;26.73;;
64915;SDS011;51427;-27.442;153.014;2023-07-28T12:30:32;53.97;;;20.90;;
64915;SDS011;51427;-27.442;153.014;2023-07-28T12:33:00;54.55;;;22.00;;
64915;SDS011;51427;-27.442;153.014;2023-07-28T12:35:27;74.43;;;28.38;;
64915;SDS011;51427;-27.442;153.014;2023-07-28T12:38:00;67.18;;;27.45;;
64915;SDS011;51427;-27.442;153.014;2023-07-28T12:40:30;51.70;;;21.98;;
64915;SDS011;51427;-27.442;153.014;2023-07-28T12:43:00;39.70;;;16.90;;
64915;SDS011;51427;-27.442;153.014;2023-07-28T12:45:29;26.63;;;12.13;;
64915;SDS011;51427;-27.442;153.014;2023-07-28T12:47:56;25.55;;;11.20;;
64915;SDS011;51427;-27.442;153.014;2023-07-28T12:50:24;12.68;;;5.85;;
64915;SDS011;51427;-27.442;153.014;2023-07-28T12:52:51;17.63;;;7.35;;
64915;SDS011;51427;-27.442;153.014;2023-07-28T12:55:18;20.83;;;8.70;;
64915;SDS011;51427;-27.442;153.014;2023-07-28T12:57:46;23.83;;;9.40;;
64915;SDS011;51427;-27.442;153.014;2023-07-28T13:00:16;17.33;;;7.03;;
64915;SDS011;51427;-27.442;153.014;2023-07-28T13:02:44;9.73;;;4.85;;
64915;SDS011;51427;-27.442;153.014;2023-07-28T13:05:12;7.93;;;3.92;;
64915;SDS011;51427;-27.442;153.014;2023-07-28T13:07:41;8.70;;;3.92;;
64915;SDS011;51427;-27.442;153.014;2023-07-28T13:10:09;8.80;;;3.30;;
64915;SDS011;51427;-27.442;153.014;2023-07-28T13:12:37;5.30;;;3.67;;
64915;SDS011;51427;-27.442;153.014;2023-07-28T13:15:05;6.65;;;3.63;;
64915;SDS011;51427;-27.442;153.014;2023-07-28T13:17:32;7.15;;;4.03;;
64915;SDS011;51427;-27.442;153.014;2023-07-28T13:19:59;15.85;;;7.13;;
64915;SDS011;51427;-27.442;153.014;2023-07-28T13:22:27;20.85;;;7.55;;
64915;SDS011;51427;-27.442;153.014;2023-07-28T13:24:54;8.73;;;3.35;;
64915;SDS011;51427;-27.442;153.014;2023-07-28T13:27:21;11.23;;;5.60;;
64915;SDS011;51427;-27.442;153.014;2023-07-28T13:29:48;5.95;;;3.70;;
64915;SDS011;51427;-27.442;153.014;2023-07-28T13:32:17;14.60;;;6.50;;
64915;SDS011;51427;-27.442;153.014;2023-07-28T13:34:52;24.48;;;9.10;;
64915;SDS011;51427;-27.442;153.014;2023-07-28T13:37:19;14.77;;;6.65;;
64915;SDS011;51427;-27.442;153.014;2023-07-28T13:39:46;10.35;;;5.32;;
64915;SDS011;51427;-27.442;153.014;2023-07-28T13:42:13;8.10;;;3.53;;
64915;SDS011;51427;-27.442;153.014;2023-07-28T13:44:42;5.45;;;3.28;;
64915;SDS011;51427;-27.442;153.014;2023-07-28T13:47:09;9.45;;;4.00;;
64915;SDS011;51427;-27.442;153.014;2023-07-28T13:49:36;5.85;;;3.47;;
64915;SDS011;51427;-27.442;153.014;2023-07-28T13:52:04;11.60;;;5.18;;
64915;SDS011;51427;-27.442;153.014;2023-07-28T13:54:31;10.38;;;4.32;;
64915;SDS011;51427;-27.442;153.014;2023-07-28T13:56:59;8.35;;;4.50;;
64915;SDS011;51427;-27.442;153.014;2023-07-28T13:59:26;8.48;;;3.95;;
64915;SDS011;51427;-27.442;153.014;2023-07-28T14:01:53;7.50;;;4.07;;
64915;SDS011;51427;-27.442;153.014;2023-07-28T14:04:21;7.95;;;4.18;;
64915;SDS011;51427;-27.442;153.014;2023-07-28T14:06:48;7.72;;;4.32;;
64915;SDS011;51427;-27.442;153.014;2023-07-28T14:09:15;5.20;;;2.97;;
64915;SDS011;51427;-27.442;153.014;2023-07-28T14:11:43;3.90;;;2.80;;
64915;SDS011;51427;-27.442;153.014;2023-07-28T14:14:10;5.95;;;3.08;;
64915;SDS011;51427;-27.442;153.014;2023-07-28T14:16:37;3.88;;;2.50;;
64915;SDS011;51427;-27.442;153.014;2023-07-28T14:19:05;6.20;;;2.72;;
64915;SDS011;51427;-27.442;153.014;2023-07-28T14:21:32;7.07;;;3.85;;
64915;SDS011;51427;-27.442;153.014;2023-07-28T14:23:59;11.07;;;4.90;;
64915;SDS011;51427;-27.442;153.014;2023-07-28T14:26:26;7.53;;;3.85;;
64915;SDS011;51427;-27.442;153.014;2023-07-28T14:28:54;6.38;;;3.45;;
64915;SDS011;51427;-27.442;153.014;2023-07-28T14:31:21;5.68;;;3.35;;
64915;SDS011;51427;-27.442;153.014;2023-07-28T14:33:48;7.22;;;3.03;;
64915;SDS011;51427;-27.442;153.014;2023-07-28T14:36:16;9.02;;;4.22;;
64915;SDS011;51427;-27.442;153.014;2023-07-28T14:38:44;6.47;;;4.10;;
64915;SDS011;51427;-27.442;153.014;2023-07-28T14:41:11;6.90;;;3.65;;
64915;SDS011;51427;-27.442;153.014;2023-07-28T14:43:38;24.02;;;13.63;;
64915;SDS011;51427;-27.442;153.014;2023-07-28T14:46:06;49.78;;;33.92;;
64915;SDS011;51427;-27.442;153.014;2023-07-28T14:48:33;16.30;;;9.48;;
64915;SDS011;51427;-27.442;153.014;2023-07-28T14:51:00;6.95;;;3.85;;
64915;SDS011;51427;-27.442;153.014;2023-07-28T14:53:32;18.10;;;10.52;;
64915;SDS011;51427;-27.442;153.014;2023-07-28T14:56:02;19.15;;;12.38;;
64915;SDS011;51427;-27.442;153.014;2023-07-28T14:58:30;13.70;;;8.18;;
64915;SDS011;51427;-27.442;153.014;2023-07-28T15:00:58;13.68;;;8.80;;
64915;SDS011;51427;-27.442;153.014;2023-07-28T15:03:26;9.10;;;5.45;;
64915;SDS011;51427;-27.442;153.014;2023-07-28T15:05:56;10.00;;;6.40;;
64915;SDS011;51427;-27.442;153.014;2023-07-28T15:08:23;4.97;;;2.72;;
64915;SDS011;51427;-27.442;153.014;2023-07-28T15:10:51;9.10;;;4.97;;
64915;SDS011;51427;-27.442;153.014;2023-07-28T15:13:18;7.50;;;4.97;;
64915;SDS011;51427;-27.442;153.014;2023-07-28T15:15:46;8.80;;;4.30;;
64915;SDS011;51427;-27.442;153.014;2023-07-28T15:18:14;6.82;;;4.55;;
64915;SDS011;51427;-27.442;153.014;2023-07-28T15:20:42;6.10;;;4.18;;
64915;SDS011;51427;-27.442;153.014;2023-07-28T15:23:09;6.07;;;4.32;;
64915;SDS011;51427;-27.442;153.014;2023-07-28T15:25:37;7.22;;;3.70;;
64915;SDS011;51427;-27.442;153.014;2023-07-28T15:28:13;4.57;;;3.63;;
64915;SDS011;51427;-27.442;153.014;2023-07-28T15:30:41;6.25;;;3.88;;
64915;SDS011;51427;-27.442;153.014;2023-07-28T15:33:11;7.00;;;5.57;;
64915;SDS011;51427;-27.442;153.014;2023-07-28T15:35:39;6.38;;;3.90;;
64915;SDS011;51427;-27.442;153.014;2023-07-28T15:38:06;6.53;;;3.35;;
64915;SDS011;51427;-27.442;153.014;2023-07-28T15:40:34;5.05;;;3.35;;
64915;SDS011;51427;-27.442;153.014;2023-07-28T15:45:27;7.10;;;4.00;;
64915;SDS011;51427;-27.442;153.014;2023-07-28T15:47:55;6.05;;;3.95;;
64915;SDS011;51427;-27.442;153.014;2023-07-28T15:52:48;7.68;;;4.85;;
64915;SDS011;51427;-27.442;153.014;2023-07-28T15:55:17;6.00;;;3.45;;
64915;SDS011;51427;-27.442;153.014;2023-07-28T15:57:45;5.45;;;3.88;;
64915;SDS011;51427;-27.442;153.014;2023-07-28T16:00:12;8.30;;;4.10;;